Podgorica Airport / Podgorica Golubovci Airbase

LYPG · Podgorica, Montenegro

罗盘
风向 的 风向 340° Podgorica Airport 18/36
风: 5 kt, 2 beaufort

5 kt

2 kt
改变
0 ft 1.000 2.000 3.000 4.000 5.000
CAVOK
METAR LYPG 220330Z 34005KT CAVOK 05/04 Q1016 NOSIG

METAR Podgorica Airport - LYPG/TGD

Podgorica Airport是,Montenegro中的大型机场。 该机场位于纬度42,35940和经度19,25190。 该机场有一条跑道: 18/36. 本场的ICAO机场代码为LYPG。 该机场的IATA代码为TGD。 机场在Beograd FIR中。

该航空气象观测是针对Podgorica Airport在2024年4月22日 05:30, 当地时间进行的。

机场观察

风向为340°,速度为5 kt。

天气为CAVOK。这意味着在5.000 ft或MSA(最低安全高度)以下(以较高者为准)以下没有云。这也意味着没有观测到积雨云或高耸的积云,可见度为10 km 或者更多或更高。此外,不会有雾,降雨或其他重要天气。

温度为5 °C,阵风为1 °C。 露点为4 °C,相对湿度为93%。 海平面上的气压为1016 hPa (QNH)。

白天

今天,太阳从05:50升起,在19:32降落。 这适用于Podgorica Airport,世界夏令时可能有所不同。 当地时间与世界标准时间之间的时差为+2 小时。 夏令时目前正在进行中。

公司介绍

我们没有关于这个机场的公司信息。

体会

到Vliegles.nl去找飞行课程,跳伞和其他飞行体验。 浏览页面,了解Podgorica Airport附近所有可用的活动。 你也可以使用搜索功能来寻找你所在地附近的特定飞行课程、跳伞或其他飞行体验。

跑道

Id 标题 侧风 逆风 侧风 %
18/36 184°-004° 2 kt 5 kt 41 %

逆风成分最大的方向会被突出显示,并用于横风计算。 这并不一定意味着这个方向在使用。

温度 & 天气

温度 5 °C
露点 4 °C
相对湿度 93%
风寒 1 °C
Kp-index 0 (0-9)

白天

日出
05:50 (9m)
中午
12:41
日落
19:32

小工具

你想在你的网站上有一个关于Podgorica Airport的当前航空天气(METAR)的小部件吗?

显示HTML代码
报告变更